Aviation Digital Data Service (ADDS)

Output produced by METARs form (0916 UTC 30 May 2017)
found at http://www.aviationweather.gov/adds/metars/
 
KSMO 300851Z AUTO 08003KT 8SM OVC012 16/13 A2990 RMK AO2 SLP124 T01610133 58010 $
KSMO 300807Z 3008/3106 VRB03KT P6SM OVC010 
     FM301600 22006KT P6SM OVC012 
     FM302100 22010KT P6SM SCT015 SCT200 
     FM310400 VRB03KT P6SM OVC012
       
KLAX 300853Z 08004KT 9SM OVC011 17/14 A2990 RMK AO2 SLP123 T01670139 57009
KLAX 300904Z 3009/3112 VRB04KT P6SM OVC011 
     FM302100 25012KT P6SM BKN018 
     FM310300 25006KT 4SM BR OVC012 
     FM310800 VRB03KT P6SM OVC010
       
KVNY 300851Z 11007KT 7SM OVC006 14/13 A2990 RMK AO2 SLP117 T01440133 57006
KVNY 300806Z 3008/3106 10006KT P6SM OVC007 
     FM301400 VRB03KT P6SM OVC010 
     FM301700 14008KT P6SM SCT200 
     FM310400 10006KT P6SM BKN200
       
KCMA 300855Z AUTO 18003KT 8SM OVC006 14/12 A2990 RMK AO2 SLP134 T01440122 55003
KCMA 300800Z 3008/3106 VRB03KT P6SM OVC007 
     FM301600 24006KT P6SM OVC012 
     FM302100 24008KT P6SM SCT015 SCT200 
     FM310400 VRB03KT P6SM SCT200